Time;durP1;ratioP1;P1;durP2;ratioP2;P2;SDS_P1;SDS_P2;PMS_P1;PMS_P2;Temp;Humidity;BMP_temperature;BMP_pressure;BME280_temperature;BME280_humidity;BME280_pressure;Samples;Min_cycle;Max_cycle;Signal;HPM_P1;HPM_P2
2022/03/02 00:00:16;;;;;;;17.40;11.23;;;;;;;;;;5014967;28;20529;-73
2022/03/02 00:02:44;;;;;;;14.37;9.70;;;;;;;;;;5014817;28;20510;-73
2022/03/02 00:05:14;;;;;;;16.00;10.67;;;;;;;;;;5014435;28;20526;-73
2022/03/02 00:07:42;;;;;;;18.20;11.20;;;;;;;;;;5014191;28;21374;-73
2022/03/02 00:10:11;;;;;;;18.10;10.83;;;;;;;;;;5014406;28;20498;-73
2022/03/02 00:12:39;;;;;;;20.90;11.20;;;;;;;;;;5014019;28;20491;-73
2022/03/02 00:15:11;;;;;;;20.43;12.27;;;;;;;;;;5018216;28;20534;-73
2022/03/02 00:17:46;;;;;;;21.97;11.37;;;;;;;;;;5015026;28;20452;-73
2022/03/02 00:20:22;;;;;;;18.40;10.90;;;;;;;;;;5061642;28;20731;-74
2022/03/02 00:22:52;;;;;;;16.97;10.83;;;;;;;;;;5014379;28;20534;-73
2022/03/02 00:25:25;;;;;;;18.60;11.27;;;;;;;;;;5032599;27;20451;-73
2022/03/02 00:27:58;;;;;;;35.23;12.90;;;;;;;;;;5026115;28;21031;-74
2022/03/02 00:30:28;;;;;;;18.07;10.57;;;;;;;;;;5014889;28;20798;-74
2022/03/02 00:32:56;;;;;;;18.53;11.20;;;;;;;;;;5014633;28;20954;-73
2022/03/02 00:35:25;;;;;;;23.17;12.30;;;;;;;;;;5014257;28;20458;-74
2022/03/02 00:37:53;;;;;;;19.90;12.27;;;;;;;;;;5014062;28;20460;-74
2022/03/02 00:40:21;;;;;;;20.90;12.40;;;;;;;;;;5014885;28;20546;-74
2022/03/02 00:42:50;;;;;;;16.53;13.00;;;;;;;;;;5013966;28;20459;-74
2022/03/02 00:45:18;;;;;;;20.20;11.77;;;;;;;;;;5014795;28;20463;-74
2022/03/02 00:47:46;;;;;;;19.13;10.77;;;;;;;;;;5014569;28;20532;-74
2022/03/02 00:50:15;;;;;;;18.80;11.07;;;;;;;;;;5013923;28;20495;-74
2022/03/02 00:52:45;;;;;;;19.97;10.70;;;;;;;;;;5014607;28;20463;-73
2022/03/02 00:55:13;;;;;;;19.57;12.03;;;;;;;;;;5014444;28;20477;-73
2022/03/02 00:57:41;;;;;;;16.37;11.07;;;;;;;;;;5014656;28;20463;-73
2022/03/02 01:00:09;;;;;;;20.83;11.53;;;;;;;;;;5014451;28;20440;-73
2022/03/02 01:02:37;;;;;;;18.27;11.60;;;;;;;;;;5015037;28;20591;-73
2022/03/02 01:05:10;;;;;;;20.63;10.00;;;;;;;;;;5014540;28;20552;-74
2022/03/02 01:07:38;;;;;;;20.63;12.67;;;;;;;;;;5014864;28;20486;-73
2022/03/02 01:10:09;;;;;;;18.70;11.20;;;;;;;;;;5014001;28;20548;-73
2022/03/02 01:12:37;;;;;;;18.27;10.60;;;;;;;;;;5014546;28;20471;-73
2022/03/02 01:15:07;;;;;;;22.80;12.53;;;;;;;;;;5014614;28;20529;-73
2022/03/02 01:17:35;;;;;;;18.00;11.33;;;;;;;;;;5014628;28;20455;-74
2022/03/02 01:20:03;;;;;;;22.30;11.23;;;;;;;;;;5014680;28;20514;-74
2022/03/02 01:22:31;;;;;;;19.77;10.80;;;;;;;;;;5014200;28;20463;-74
2022/03/02 01:24:59;;;;;;;18.30;10.53;;;;;;;;;;5014084;28;20443;-73
2022/03/02 01:27:28;;;;;;;23.57;11.50;;;;;;;;;;5014301;28;20548;-74
2022/03/02 01:29:56;;;;;;;17.23;10.93;;;;;;;;;;5013620;28;20462;-74
2022/03/02 01:32:24;;;;;;;22.57;12.30;;;;;;;;;;5014350;28;20455;-74
2022/03/02 01:34:51;;;;;;;28.73;16.67;;;;;;;;;;5014066;28;20534;-74
2022/03/02 01:37:19;;;;;;;20.47;14.73;;;;;;;;;;5014057;28;20459;-73
2022/03/02 01:39:48;;;;;;;31.17;15.70;;;;;;;;;;5014068;28;20455;-73
2022/03/02 01:42:16;;;;;;;24.77;13.83;;;;;;;;;;5014066;28;20538;-73
2022/03/02 01:44:46;;;;;;;19.73;13.37;;;;;;;;;;5013206;28;20701;-73
2022/03/02 01:47:14;;;;;;;22.93;12.77;;;;;;;;;;5014095;28;20455;-73
2022/03/02 01:49:44;;;;;;;20.70;12.30;;;;;;;;;;5013511;28;20447;-73
2022/03/02 01:52:11;;;;;;;17.90;11.93;;;;;;;;;;5013203;28;20495;-74
2022/03/02 01:54:42;;;;;;;19.90;12.33;;;;;;;;;;5014680;28;20444;-74
2022/03/02 01:57:14;;;;;;;25.40;12.10;;;;;;;;;;5013704;28;20459;-73
2022/03/02 01:59:43;;;;;;;16.13;11.90;;;;;;;;;;5014005;28;20463;-73
2022/03/02 02:02:12;;;;;;;16.50;10.80;;;;;;;;;;5013295;28;20937;-73
2022/03/02 02:04:40;;;;;;;17.60;10.77;;;;;;;;;;5013613;28;20521;-73
2022/03/02 02:07:08;;;;;;;24.10;11.63;;;;;;;;;;5012988;28;20463;-73
2022/03/02 02:09:35;;;;;;;17.50;10.60;;;;;;;;;;5013977;28;20444;-73
2022/03/02 02:12:03;;;;;;;19.20;10.93;;;;;;;;;;5013467;28;20516;-73
2022/03/02 02:14:31;;;;;;;20.13;11.23;;;;;;;;;;5012599;28;20869;-73
2022/03/02 02:16:59;;;;;;;15.40;9.83;;;;;;;;;;5012148;28;20547;-73
2022/03/02 02:19:28;;;;;;;16.10;11.23;;;;;;;;;;5013284;28;20489;-73
2022/03/02 02:21:57;;;;;;;17.33;9.93;;;;;;;;;;5013489;28;20868;-74
2022/03/02 02:24:26;;;;;;;16.97;10.57;;;;;;;;;;5012378;28;20459;-74
2022/03/02 02:26:53;;;;;;;16.27;9.33;;;;;;;;;;5012876;28;21138;-73
2022/03/02 02:29:23;;;;;;;17.47;9.20;;;;;;;;;;5012870;28;20501;-74
2022/03/02 02:31:51;;;;;;;19.17;10.73;;;;;;;;;;5012879;28;20902;-73
2022/03/02 02:34:18;;;;;;;17.60;9.40;;;;;;;;;;5012942;28;20451;-74
2022/03/02 02:36:52;;;;;;;19.23;10.13;;;;;;;;;;5012777;28;20498;-73
2022/03/02 02:39:21;;;;;;;19.10;10.30;;;;;;;;;;5016343;28;20529;-73
2022/03/02 02:41:49;;;;;;;19.10;10.20;;;;;;;;;;5016343;28;20476;-73
2022/03/02 02:44:17;;;;;;;12.63;8.67;;;;;;;;;;5016761;28;20855;-74
2022/03/02 02:46:46;;;;;;;16.40;10.03;;;;;;;;;;5015826;28;20452;-74
2022/03/02 02:49:13;;;;;;;16.77;11.23;;;;;;;;;;5015469;28;20502;-74
2022/03/02 02:51:41;;;;;;;19.73;10.70;;;;;;;;;;5016635;28;20490;-75
2022/03/02 02:54:09;;;;;;;13.83;9.50;;;;;;;;;;5015629;28;20721;-74
2022/03/02 02:56:50;;;;;;;17.43;10.57;;;;;;;;;;5016660;28;20497;-74
2022/03/02 02:59:18;;;;;;;18.63;10.60;;;;;;;;;;5016089;28;20490;-73
2022/03/02 03:01:46;;;;;;;18.37;9.90;;;;;;;;;;5015883;28;20461;-74
2022/03/02 03:04:13;;;;;;;17.00;10.90;;;;;;;;;;5016017;28;20463;-74
2022/03/02 03:06:41;;;;;;;21.80;11.17;;;;;;;;;;5015649;28;20497;-74
2022/03/02 03:09:09;;;;;;;16.40;9.87;;;;;;;;;;5016144;28;20562;-74
2022/03/02 03:11:39;;;;;;;21.17;11.83;;;;;;;;;;5016095;28;20586;-74
2022/03/02 03:14:10;;;;;;;15.00;9.53;;;;;;;;;;5016237;28;20463;-74
2022/03/02 03:16:38;;;;;;;14.20;9.50;;;;;;;;;;5016341;28;21219;-74
2022/03/02 03:19:06;;;;;;;18.40;10.07;;;;;;;;;;5015460;28;20796;-74
2022/03/02 03:21:37;;;;;;;17.50;9.50;;;;;;;;;;5016432;28;20466;-74
2022/03/02 03:24:05;;;;;;;16.10;9.67;;;;;;;;;;5015768;28;20460;-73
2022/03/02 03:26:33;;;;;;;18.63;11.70;;;;;;;;;;5015670;28;20463;-74
2022/03/02 03:29:01;;;;;;;18.27;11.87;;;;;;;;;;5015408;28;20521;-73
2022/03/02 03:31:30;;;;;;;17.70;11.10;;;;;;;;;;5015745;28;20741;-74
2022/03/02 03:33:58;;;;;;;25.00;11.60;;;;;;;;;;5015116;28;20544;-74
2022/03/02 03:36:26;;;;;;;20.17;11.57;;;;;;;;;;5015484;28;20755;-74
2022/03/02 03:38:54;;;;;;;14.90;10.30;;;;;;;;;;5015542;28;20482;-74
2022/03/02 03:41:21;;;;;;;18.23;11.00;;;;;;;;;;5015568;28;20489;-74
2022/03/02 03:43:49;;;;;;;17.83;10.80;;;;;;;;;;5015653;28;20459;-74
2022/03/02 03:46:19;;;;;;;23.93;12.37;;;;;;;;;;5015392;28;20887;-74
2022/03/02 03:48:49;;;;;;;17.20;10.17;;;;;;;;;;5015456;28;21173;-74
2022/03/02 03:51:17;;;;;;;17.50;12.20;;;;;;;;;;5015406;28;20556;-74
2022/03/02 03:53:45;;;;;;;15.47;10.47;;;;;;;;;;5015441;28;20462;-74
2022/03/02 03:56:13;;;;;;;16.43;10.73;;;;;;;;;;5015980;28;20550;-74
2022/03/02 03:58:41;;;;;;;17.77;12.07;;;;;;;;;;5015677;28;20452;-74
2022/03/02 04:01:09;;;;;;;17.53;10.00;;;;;;;;;;5015095;28;20508;-74
2022/03/02 04:03:37;;;;;;;19.93;10.87;;;;;;;;;;5015270;28;20447;-74
2022/03/02 04:06:06;;;;;;;19.67;10.70;;;;;;;;;;5014812;28;20471;-74
2022/03/02 04:08:34;;;;;;;15.63;10.50;;;;;;;;;;5015036;28;20791;-74
2022/03/02 04:11:03;;;;;;;16.80;10.40;;;;;;;;;;5015142;28;20491;-74
2022/03/02 04:13:33;;;;;;;18.93;10.03;;;;;;;;;;5014552;28;20525;-74
2022/03/02 04:16:01;;;;;;;13.33;8.80;;;;;;;;;;5014845;28;20538;-74
2022/03/02 04:18:29;;;;;;;15.40;10.63;;;;;;;;;;5014629;28;20467;-74
2022/03/02 04:20:56;;;;;;;15.00;10.80;;;;;;;;;;5014827;28;20447;-74
2022/03/02 04:23:26;;;;;;;15.27;9.83;;;;;;;;;;5013906;28;20483;-74
2022/03/02 04:25:54;;;;;;;19.67;10.00;;;;;;;;;;5014073;28;20467;-74
2022/03/02 04:28:22;;;;;;;18.53;11.87;;;;;;;;;;5014512;28;20531;-73
2022/03/02 04:30:50;;;;;;;19.03;11.70;;;;;;;;;;5014529;28;20463;-74
2022/03/02 04:33:18;;;;;;;19.27;10.87;;;;;;;;;;5014969;28;20716;-73
2022/03/02 04:35:46;;;;;;;17.10;10.40;;;;;;;;;;5014619;28;20534;-73
2022/03/02 04:38:14;;;;;;;22.77;10.33;;;;;;;;;;5015036;28;20471;-74
2022/03/02 04:40:43;;;;;;;18.03;11.03;;;;;;;;;;5016648;28;20489;-74
2022/03/02 04:43:11;;;;;;;17.00;11.63;;;;;;;;;;5015704;28;20452;-74
2022/03/02 04:45:43;;;;;;;21.50;12.67;;;;;;;;;;5016805;28;20509;-72
2022/03/02 04:48:11;;;;;;;15.20;10.03;;;;;;;;;;4995386;28;20491;-73
2022/03/02 04:50:39;;;;;;;18.43;10.80;;;;;;;;;;5005059;28;20467;-74
2022/03/02 04:53:07;;;;;;;19.47;12.63;;;;;;;;;;5014711;28;21002;-72
2022/03/02 04:55:35;;;;;;;18.30;10.97;;;;;;;;;;5032148;28;20553;-74
2022/03/02 04:58:08;;;;;;;16.13;10.67;;;;;;;;;;5033657;28;20467;-73
2022/03/02 05:00:37;;;;;;;22.63;11.60;;;;;;;;;;5004284;28;20470;-73
2022/03/02 05:03:22;;;;;;;17.83;10.83;;;;;;;;;;4994206;28;20733;-74
2022/03/02 05:05:54;;;;;;;17.13;10.20;;;;;;;;;;4994328;28;20468;-74
2022/03/02 05:08:22;;;;;;;15.03;10.67;;;;;;;;;;4994440;28;20452;-74
2022/03/02 05:10:50;;;;;;;18.90;12.00;;;;;;;;;;4994605;28;20452;-74
2022/03/02 05:13:28;;;;;;;17.50;12.20;;;;;;;;;;4994189;28;20496;-74
2022/03/02 05:15:56;;;;;;;18.87;12.83;;;;;;;;;;4994931;28;20436;-73
2022/03/02 05:18:27;;;;;;;20.23;12.70;;;;;;;;;;4994818;28;20765;-73
2022/03/02 05:20:54;;;;;;;15.20;10.47;;;;;;;;;;4995374;28;20529;-74
2022/03/02 05:23:22;;;;;;;19.23;11.60;;;;;;;;;;4995018;28;20445;-74
2022/03/02 05:25:53;;;;;;;19.90;11.87;;;;;;;;;;4994096;28;20471;-73
2022/03/02 05:28:22;;;;;;;17.90;10.83;;;;;;;;;;4993526;28;20949;-73
2022/03/02 05:30:57;;;;;;;16.07;10.90;;;;;;;;;;4993397;28;20534;-74
2022/03/02 05:33:25;;;;;;;17.27;10.50;;;;;;;;;;4993874;28;20496;-73
2022/03/02 05:35:54;;;;;;;20.80;10.60;;;;;;;;;;4994133;28;20455;-73
2022/03/02 05:38:22;;;;;;;13.83;10.33;;;;;;;;;;4994303;28;20732;-73
2022/03/02 05:40:52;;;;;;;17.17;12.00;;;;;;;;;;5014054;28;20459;-73
2022/03/02 05:43:20;;;;;;;27.00;11.10;;;;;;;;;;5012938;28;20738;-73
2022/03/02 05:45:50;;;;;;;21.87;11.57;;;;;;;;;;5013115;28;20546;-74
2022/03/02 05:48:18;;;;;;;19.30;11.07;;;;;;;;;;5013110;28;20451;-74
2022/03/02 05:50:46;;;;;;;15.07;10.60;;;;;;;;;;5011921;28;20871;-74
2022/03/02 05:53:19;;;;;;;16.00;10.10;;;;;;;;;;5012919;28;20590;-74
2022/03/02 05:55:47;;;;;;;22.10;12.50;;;;;;;;;;5013359;28;20461;-73
2022/03/02 05:58:15;;;;;;;18.40;11.90;;;;;;;;;;5013402;28;20799;-73
2022/03/02 06:00:42;;;;;;;18.37;11.37;;;;;;;;;;5012790;28;20461;-73
2022/03/02 06:03:14;;;;;;;16.80;10.90;;;;;;;;;;5012958;28;20717;-73
2022/03/02 06:05:50;;;;;;;20.03;12.40;;;;;;;;;;5010655;28;20464;-73
2022/03/02 06:08:21;;;;;;;16.33;10.63;;;;;;;;;;5010898;28;20459;-73
2022/03/02 06:10:49;;;;;;;21.27;11.57;;;;;;;;;;5024644;28;20976;-73
2022/03/02 06:13:17;;;;;;;19.37;11.00;;;;;;;;;;5026897;28;20585;-73
2022/03/02 06:15:45;;;;;;;17.50;10.80;;;;;;;;;;5012358;28;20447;-73
2022/03/02 06:18:14;;;;;;;19.50;12.70;;;;;;;;;;5014559;28;20540;-73
2022/03/02 06:20:43;;;;;;;20.97;11.23;;;;;;;;;;5013753;28;20455;-73
2022/03/02 06:23:11;;;;;;;23.70;12.97;;;;;;;;;;5014239;28;20462;-73
2022/03/02 06:25:40;;;;;;;21.07;13.73;;;;;;;;;;5014966;28;20548;-73
2022/03/02 06:28:09;;;;;;;24.30;15.10;;;;;;;;;;5012212;28;20456;-74
2022/03/02 06:30:36;;;;;;;21.90;13.57;;;;;;;;;;5001347;28;20475;-74
2022/03/02 06:33:19;;;;;;;24.10;12.63;;;;;;;;;;4994929;28;21063;-73
2022/03/02 06:35:48;;;;;;;16.50;11.03;;;;;;;;;;4994123;28;20558;-73
2022/03/02 06:38:16;;;;;;;21.37;12.00;;;;;;;;;;4992099;28;20460;-73
2022/03/02 06:40:57;;;;;;;19.73;11.83;;;;;;;;;;4991838;28;20458;-73
2022/03/02 06:43:28;;;;;;;21.87;13.13;;;;;;;;;;4994714;28;20510;-73
2022/03/02 06:46:01;;;;;;;18.87;11.70;;;;;;;;;;4994895;28;20444;-74
2022/03/02 06:48:39;;;;;;;17.30;10.87;;;;;;;;;;4994387;28;20440;-74
2022/03/02 06:51:13;;;;;;;18.27;13.27;;;;;;;;;;4994599;28;20448;-74
2022/03/02 06:53:45;;;;;;;22.10;12.60;;;;;;;;;;4995591;28;20927;-74
2022/03/02 06:56:13;;;;;;;19.87;10.97;;;;;;;;;;4994652;28;20840;-74
2022/03/02 06:58:42;;;;;;;19.40;9.60;;;;;;;;;;4994991;28;20753;-74
2022/03/02 07:01:14;;;;;;;19.03;11.37;;;;;;;;;;5011983;28;20511;-74
2022/03/02 07:03:48;;;;;;;15.50;10.00;;;;;;;;;;5013513;28;20519;-73
2022/03/02 07:06:18;;;;;;;16.53;11.20;;;;;;;;;;5033477;28;20837;-73
2022/03/02 07:08:48;;;;;;;19.53;12.70;;;;;;;;;;5032714;28;20470;-73
2022/03/02 07:11:17;;;;;;;19.43;10.20;;;;;;;;;;5033372;28;20546;-73
2022/03/02 07:13:45;;;;;;;16.57;10.87;;;;;;;;;;5033268;28;20486;-73
2022/03/02 07:16:13;;;;;;;21.80;13.70;;;;;;;;;;5032766;28;20457;-73
2022/03/02 07:18:41;;;;;;;16.30;10.30;;;;;;;;;;5032544;28;20466;-73
2022/03/02 07:21:11;;;;;;;16.50;10.70;;;;;;;;;;5032395;28;20878;-73
2022/03/02 07:23:42;;;;;;;20.67;10.37;;;;;;;;;;5011522;28;20806;-73
2022/03/02 07:26:11;;;;;;;19.63;12.00;;;;;;;;;;5010213;28;20451;-73
2022/03/02 07:28:39;;;;;;;14.50;10.90;;;;;;;;;;5006493;28;20459;-73
2022/03/02 07:31:08;;;;;;;27.83;11.80;;;;;;;;;;5017356;28;20756;-73
2022/03/02 07:33:43;;;;;;;20.03;12.80;;;;;;;;;;5013633;28;20787;-73
2022/03/02 07:36:14;;;;;;;17.63;11.23;;;;;;;;;;4994705;28;20452;-73
2022/03/02 07:38:47;;;;;;;16.90;11.40;;;;;;;;;;5003324;28;20452;-74
2022/03/02 07:41:15;;;;;;;17.63;10.40;;;;;;;;;;5020265;28;20447;-73
2022/03/02 07:43:43;;;;;;;22.93;11.60;;;;;;;;;;5010132;28;20452;-75
2022/03/02 07:46:14;;;;;;;25.77;12.70;;;;;;;;;;5013254;28;20451;-73
2022/03/02 07:48:43;;;;;;;27.07;12.20;;;;;;;;;;5013549;28;20761;-74
2022/03/02 07:54:31;;;;;;;19.93;11.67;;;;;;;;;;5115636;27;20504;-72
2022/03/02 07:57:01;;;;;;;22.47;13.63;;;;;;;;;;5108794;27;20482;-72
2022/03/02 07:59:32;;;;;;;20.90;14.00;;;;;;;;;;5092971;28;20454;-72
2022/03/02 08:02:02;;;;;;;19.47;13.20;;;;;;;;;;5112084;28;20519;-72
2022/03/02 08:04:30;;;;;;;21.77;13.80;;;;;;;;;;5113021;28;20450;-72
2022/03/02 08:06:58;;;;;;;20.13;12.27;;;;;;;;;;5110535;28;20458;-72
2022/03/02 08:09:31;;;;;;;20.93;13.20;;;;;;;;;;5109938;28;20448;-72
2022/03/02 08:12:01;;;;;;;20.47;12.83;;;;;;;;;;5111420;28;20447;-72
2022/03/02 08:14:29;;;;;;;14.67;10.73;;;;;;;;;;5111995;28;20447;-72
2022/03/02 08:16:57;;;;;;;16.40;11.43;;;;;;;;;;5112127;28;20701;-71
2022/03/02 08:19:25;;;;;;;18.20;11.90;;;;;;;;;;5111414;28;20447;-73
2022/03/02 08:21:54;;;;;;;17.43;11.87;;;;;;;;;;5111617;28;20516;-72
2022/03/02 08:24:22;;;;;;;23.70;10.53;;;;;;;;;;5112133;28;20451;-72
2022/03/02 08:26:52;;;;;;;20.10;11.90;;;;;;;;;;5111389;28;20447;-72
2022/03/02 08:29:21;;;;;;;19.73;12.60;;;;;;;;;;5111569;28;20450;-72
2022/03/02 08:31:52;;;;;;;20.40;12.43;;;;;;;;;;5110998;28;20447;-73
2022/03/02 08:34:20;;;;;;;25.30;13.00;;;;;;;;;;5112554;28;20495;-71
2022/03/02 08:36:51;;;;;;;14.73;9.73;;;;;;;;;;5110863;28;20451;-74
2022/03/02 08:39:18;;;;;;;16.27;11.97;;;;;;;;;;5109033;28;20515;-72
2022/03/02 08:41:48;;;;;;;16.00;11.60;;;;;;;;;;5111862;28;20959;-71
2022/03/02 08:44:22;;;;;;;19.00;12.60;;;;;;;;;;5111167;28;20515;-71
2022/03/02 08:46:50;;;;;;;18.70;12.43;;;;;;;;;;5110687;28;20447;-72
2022/03/02 08:49:18;;;;;;;18.00;10.50;;;;;;;;;;5111382;28;20747;-71
2022/03/02 08:51:46;;;;;;;13.43;8.93;;;;;;;;;;5110785;28;21060;-71
2022/03/02 08:54:18;;;;;;;16.97;11.07;;;;;;;;;;5110094;28;20906;-72
2022/03/02 08:56:48;;;;;;;14.73;11.07;;;;;;;;;;5111170;28;20443;-72
2022/03/02 08:59:19;;;;;;;17.37;10.80;;;;;;;;;;5110637;28;20479;-72
2022/03/02 09:01:55;;;;;;;16.53;11.47;;;;;;;;;;5109748;28;20811;-72
2022/03/02 09:04:23;;;;;;;18.10;10.23;;;;;;;;;;5101885;28;20452;-71
2022/03/02 09:06:59;;;;;;;19.53;11.80;;;;;;;;;;5096648;28;20470;-72
2022/03/02 09:09:27;;;;;;;16.83;12.37;;;;;;;;;;5097534;28;20554;-71
2022/03/02 09:11:56;;;;;;;19.30;12.10;;;;;;;;;;5094448;28;20455;-73
2022/03/02 09:14:27;;;;;;;15.37;10.13;;;;;;;;;;5076969;28;20516;-72
2022/03/02 09:16:55;;;;;;;16.50;10.90;;;;;;;;;;5077407;28;20448;-71
2022/03/02 09:19:23;;;;;;;15.50;10.10;;;;;;;;;;5093795;28;20447;-71
2022/03/02 09:21:51;;;;;;;18.53;9.00;;;;;;;;;;5097130;28;20524;-72
2022/03/02 09:24:26;;;;;;;16.27;11.07;;;;;;;;;;5102555;28;20466;-73
2022/03/02 09:27:00;;;;;;;17.00;8.63;;;;;;;;;;5109593;28;20946;-74
2022/03/02 09:29:33;;;;;;;15.03;9.17;;;;;;;;;;5108215;28;20530;-72
2022/03/02 09:32:02;;;;;;;19.20;10.80;;;;;;;;;;5096159;28;20798;-72
2022/03/02 09:34:35;;;;;;;16.40;9.87;;;;;;;;;;5097331;28;20600;-71
2022/03/02 09:37:09;;;;;;;14.20;9.50;;;;;;;;;;5095669;28;20452;-71
2022/03/02 09:39:42;;;;;;;20.73;8.87;;;;;;;;;;5097289;28;20536;-71
2022/03/02 09:42:12;;;;;;;12.73;8.80;;;;;;;;;;5097522;28;20463;-71
2022/03/02 09:44:45;;;;;;;12.27;8.73;;;;;;;;;;5097299;28;20560;-71
2022/03/02 09:47:17;;;;;;;11.33;8.97;;;;;;;;;;5112030;28;20458;-73
2022/03/02 09:49:48;;;;;;;13.30;8.80;;;;;;;;;;5118179;28;20479;-71
2022/03/02 09:52:18;;;;;;;12.33;9.37;;;;;;;;;;5117148;28;20482;-71
2022/03/02 09:54:52;;;;;;;18.70;10.73;;;;;;;;;;5115658;28;20492;-71
2022/03/02 09:57:25;;;;;;;13.83;9.53;;;;;;;;;;5115055;28;20469;-71
2022/03/02 09:59:57;;;;;;;13.70;9.70;;;;;;;;;;5081155;28;20440;-71
2022/03/02 10:02:49;;;;;;;15.30;9.00;;;;;;;;;;5076336;28;20448;-71
2022/03/02 10:05:26;;;;;;;15.10;8.30;;;;;;;;;;5089596;28;20470;-71
2022/03/02 10:08:05;;;;;;;12.93;7.60;;;;;;;;;;5096199;28;20459;-71
2022/03/02 10:10:36;;;;;;;13.43;8.80;;;;;;;;;;5094999;28;20833;-73
2022/03/02 10:13:08;;;;;;;9.23;7.30;;;;;;;;;;5087723;28;20939;-73
2022/03/02 10:15:38;;;;;;;13.50;8.63;;;;;;;;;;5094397;28;20452;-71
2022/03/02 10:18:07;;;;;;;10.73;8.03;;;;;;;;;;5093647;28;20524;-71
2022/03/02 10:20:40;;;;;;;17.60;9.27;;;;;;;;;;5095001;28;20448;-72
2022/03/02 10:23:26;;;;;;;11.63;8.17;;;;;;;;;;5095383;28;20489;-73
2022/03/02 10:26:05;;;;;;;12.00;8.87;;;;;;;;;;5096510;28;20626;-73
2022/03/02 10:28:41;;;;;;;11.43;8.53;;;;;;;;;;5093954;28;20552;-73
2022/03/02 10:31:29;;;;;;;11.20;8.07;;;;;;;;;;5094594;28;20475;-71
2022/03/02 10:34:03;;;;;;;14.30;9.13;;;;;;;;;;5095231;28;20480;-72
2022/03/02 10:36:32;;;;;;;12.27;8.20;;;;;;;;;;5095048;28;20781;-72
2022/03/02 10:39:16;;;;;;;11.93;8.37;;;;;;;;;;5094831;28;20491;-72
2022/03/02 10:41:47;;;;;;;9.80;6.90;;;;;;;;;;5095198;28;20474;-72
2022/03/02 10:44:18;;;;;;;13.80;9.40;;;;;;;;;;5095606;28;20448;-72
2022/03/02 10:46:48;;;;;;;15.30;9.70;;;;;;;;;;5095585;28;20452;-73
2022/03/02 10:49:20;;;;;;;10.40;8.03;;;;;;;;;;5095113;28;20461;-72
2022/03/02 10:51:51;;;;;;;11.67;8.33;;;;;;;;;;5077304;28;20456;-73
2022/03/02 10:54:20;;;;;;;11.07;7.63;;;;;;;;;;5074174;28;20484;-72
2022/03/02 10:56:51;;;;;;;12.83;7.50;;;;;;;;;;5083957;28;20472;-73
2022/03/02 10:59:27;;;;;;;12.50;8.43;;;;;;;;;;5093772;28;20451;-75
2022/03/02 11:01:58;;;;;;;10.63;8.30;;;;;;;;;;5094878;28;20555;-71
2022/03/02 11:04:30;;;;;;;14.10;8.83;;;;;;;;;;5093748;28;20459;-73
2022/03/02 11:06:58;;;;;;;12.57;9.10;;;;;;;;;;5093475;28;20439;-73
2022/03/02 11:09:26;;;;;;;12.10;8.63;;;;;;;;;;5093271;28;20462;-72
2022/03/02 11:12:02;;;;;;;13.07;8.13;;;;;;;;;;5093924;28;20463;-74
2022/03/02 11:14:35;;;;;;;13.93;7.90;;;;;;;;;;5101492;28;20482;-74
2022/03/02 11:20:16;;;;;;;13.43;7.80;;;;;;;;;;5091227;28;20452;-73
2022/03/02 11:22:57;;;;;;;15.43;8.17;;;;;;;;;;5094864;28;21063;-72
2022/03/02 11:25:48;;;;;;;13.43;8.67;;;;;;;;;;5090208;28;20903;-73
2022/03/02 11:28:23;;;;;;;24.73;14.47;;;;;;;;;;5093990;28;20550;-71
2022/03/02 11:30:53;;;;;;;13.60;9.73;;;;;;;;;;5075206;28;20452;-72
2022/03/02 11:33:25;;;;;;;12.47;8.30;;;;;;;;;;5085333;28;20483;-72
2022/03/02 11:35:59;;;;;;;8.93;6.27;;;;;;;;;;5075281;28;20463;-73
2022/03/02 11:38:30;;;;;;;9.73;7.10;;;;;;;;;;5078495;28;20542;-74
2022/03/02 11:40:59;;;;;;;10.93;7.20;;;;;;;;;;5075408;28;20464;-73
2022/03/02 11:43:40;;;;;;;13.77;8.53;;;;;;;;;;5093495;28;20868;-72
2022/03/02 11:46:15;;;;;;;12.53;8.13;;;;;;;;;;5094822;28;20914;-74
2022/03/02 11:49:04;;;;;;;10.83;7.63;;;;;;;;;;5093831;28;20461;-73
2022/03/02 11:51:33;;;;;;;14.73;9.33;;;;;;;;;;5094324;28;20542;-73
2022/03/02 11:54:07;;;;;;;11.73;7.47;;;;;;;;;;5093475;28;20479;-73
2022/03/02 11:56:38;;;;;;;15.20;9.07;;;;;;;;;;5094219;28;20585;-72
2022/03/02 11:59:11;;;;;;;11.60;8.20;;;;;;;;;;5094114;28;20509;-73
2022/03/02 12:01:46;;;;;;;13.47;9.20;;;;;;;;;;5092587;28;20466;-74
2022/03/02 12:04:16;;;;;;;15.30;8.30;;;;;;;;;;5092612;28;20454;-72
2022/03/02 12:06:52;;;;;;;13.23;8.30;;;;;;;;;;5090407;28;20444;-73
2022/03/02 12:09:28;;;;;;;13.03;8.07;;;;;;;;;;5093718;28;20451;-71
2022/03/02 12:12:18;;;;;;;11.33;8.43;;;;;;;;;;5089837;28;20806;-72
2022/03/02 12:14:47;;;;;;;10.80;7.70;;;;;;;;;;5094448;28;20770;-72
2022/03/02 12:17:20;;;;;;;12.30;7.97;;;;;;;;;;5093452;28;20454;-72
2022/03/02 12:19:56;;;;;;;11.07;6.47;;;;;;;;;;5092938;28;20899;-72
2022/03/02 12:22:48;;;;;;;10.17;7.20;;;;;;;;;;5093479;28;20439;-72
2022/03/02 12:25:21;;;;;;;10.83;8.00;;;;;;;;;;5087004;28;20728;-72
2022/03/02 12:27:57;;;;;;;14.47;9.20;;;;;;;;;;5093046;28;20467;-72
2022/03/02 12:30:37;;;;;;;13.63;8.40;;;;;;;;;;5094878;28;20459;-72
2022/03/02 12:33:22;;;;;;;10.17;8.87;;;;;;;;;;5073510;28;20460;-73
2022/03/02 12:38:52;;;;;;;10.50;7.97;;;;;;;;;;5093865;28;20504;-72
2022/03/02 12:41:23;;;;;;;11.67;8.90;;;;;;;;;;5095793;28;20524;-72
2022/03/02 12:44:25;;;;;;;10.80;8.47;;;;;;;;;;5096893;28;20578;-72
2022/03/02 12:47:07;;;;;;;13.80;9.93;;;;;;;;;;5096724;28;20470;-72
2022/03/02 12:56:11;;;;;;;14.40;9.43;;;;;;;;;;5084940;28;20885;-72
2022/03/02 12:58:42;;;;;;;11.00;9.03;;;;;;;;;;5079285;28;20543;-71
2022/03/02 13:01:25;;;;;;;14.77;9.97;;;;;;;;;;5104432;28;20470;-72
2022/03/02 13:03:57;;;;;;;11.40;8.00;;;;;;;;;;5110537;28;20446;-73
2022/03/02 13:06:33;;;;;;;13.73;9.80;;;;;;;;;;5101295;28;20443;-73
2022/03/02 13:09:12;;;;;;;12.50;8.80;;;;;;;;;;5097476;28;20546;-72
2022/03/02 13:11:45;;;;;;;13.17;9.53;;;;;;;;;;5094229;28;20447;-72
2022/03/02 13:14:32;;;;;;;11.63;9.20;;;;;;;;;;5096494;28;20490;-72
2022/03/02 13:19:56;;;;;;;11.87;8.63;;;;;;;;;;5106884;27;20335;-73
2022/03/02 13:22:26;;;;;;;12.57;9.20;;;;;;;;;;5090550;28;20432;-73
2022/03/02 13:25:02;;;;;;;21.90;14.90;;;;;;;;;;5073435;28;20457;-74
2022/03/02 13:27:30;;;;;;;12.27;8.60;;;;;;;;;;5089436;28;20724;-73
2022/03/02 13:30:05;;;;;;;11.57;8.73;;;;;;;;;;5088849;28;20452;-73
2022/03/02 13:32:52;;;;;;;13.77;9.47;;;;;;;;;;5082080;28;20447;-73
2022/03/02 13:35:35;;;;;;;12.03;9.00;;;;;;;;;;5089049;28;20459;-72
2022/03/02 13:38:13;;;;;;;13.27;9.70;;;;;;;;;;5104555;28;20491;-73
2022/03/02 13:40:55;;;;;;;13.33;9.37;;;;;;;;;;5064154;28;20476;-72
2022/03/02 13:43:39;;;;;;;11.20;8.53;;;;;;;;;;5086670;28;20609;-72
2022/03/02 13:46:28;;;;;;;11.93;8.50;;;;;;;;;;5088119;28;20554;-73
2022/03/02 13:49:02;;;;;;;12.07;7.80;;;;;;;;;;5082454;28;20610;-72
2022/03/02 13:52:02;;;;;;;13.00;7.80;;;;;;;;;;5091468;28;20455;-71
2022/03/02 13:54:31;;;;;;;10.40;7.93;;;;;;;;;;5065108;28;20496;-71
2022/03/02 13:57:09;;;;;;;12.33;8.87;;;;;;;;;;5087104;28;20443;-71
2022/03/02 13:59:44;;;;;;;10.70;8.57;;;;;;;;;;5064072;28;20483;-70
2022/03/02 14:02:32;;;;;;;10.77;8.93;;;;;;;;;;5085257;28;20443;-73
2022/03/02 14:05:01;;;;;;;11.80;8.20;;;;;;;;;;5082622;28;20456;-73
2022/03/02 14:07:39;;;;;;;14.57;8.10;;;;;;;;;;5082409;28;20752;-73
2022/03/02 14:13:03;;;;;;;10.53;8.27;;;;;;;;;;5070074;28;20539;-72
2022/03/02 14:15:38;;;;;;;11.50;8.17;;;;;;;;;;5085641;28;20522;-73
2022/03/02 14:18:07;;;;;;;10.97;8.00;;;;;;;;;;5088007;28;20720;-72
2022/03/02 14:20:35;;;;;;;12.80;9.40;;;;;;;;;;5087119;28;20455;-72
2022/03/02 14:23:15;;;;;;;11.20;8.03;;;;;;;;;;5087814;28;20447;-73
2022/03/02 14:25:43;;;;;;;12.37;8.00;;;;;;;;;;5053180;28;20449;-73
2022/03/02 14:28:13;;;;;;;12.10;7.93;;;;;;;;;;5089925;28;20467;-73
2022/03/02 14:30:41;;;;;;;11.97;8.77;;;;;;;;;;5076545;28;20463;-73
2022/03/02 14:33:12;;;;;;;12.23;8.10;;;;;;;;;;5072055;28;20464;-74
2022/03/02 14:35:39;;;;;;;8.77;6.60;;;;;;;;;;5056808;28;20461;-73
2022/03/02 14:38:10;;;;;;;10.80;7.43;;;;;;;;;;5062637;28;20639;-73
2022/03/02 14:40:39;;;;;;;11.37;7.20;;;;;;;;;;5066060;28;20467;-73
2022/03/02 14:43:07;;;;;;;8.47;5.90;;;;;;;;;;5067357;28;20456;-72
2022/03/02 14:45:34;;;;;;;9.53;7.10;;;;;;;;;;5068860;28;20457;-73
2022/03/02 14:48:02;;;;;;;8.53;6.70;;;;;;;;;;5054325;28;20464;-73
2022/03/02 14:50:34;;;;;;;15.90;9.57;;;;;;;;;;5057682;28;21027;-73
2022/03/02 14:53:03;;;;;;;10.50;6.60;;;;;;;;;;5048619;28;20892;-73
2022/03/02 14:55:33;;;;;;;10.33;7.23;;;;;;;;;;5073784;28;20452;-71
2022/03/02 14:58:01;;;;;;;14.63;8.23;;;;;;;;;;5058867;28;20759;-72
2022/03/02 15:00:30;;;;;;;11.60;7.20;;;;;;;;;;5056713;28;20738;-74
2022/03/02 15:02:58;;;;;;;10.73;7.33;;;;;;;;;;5073125;28;20465;-73
2022/03/02 15:05:27;;;;;;;15.53;10.10;;;;;;;;;;5069091;28;21824;-73
2022/03/02 15:07:58;;;;;;;12.23;7.73;;;;;;;;;;5073217;28;20514;-73